<?xml version="1.0" encoding="UTF-8" standalone="no" ?>
<gpx xmlns="http://www.topografix.com/GPX/1/1" xmlns:xsi="http://www.w3.org/2001/XMLSchema-instance" xsi:schemaLocation="http://www.topografix.com/GPX/1/1 http://www.topografix.com/GPX/1/1/gpx.xsd" version="1.1" creator="VisuGPX - https://www.visugpx.com">
  <metadata>
    <name>Traversée de La Clape 03/02/22</name>
    <desc><![CDATA[Enregistrement de la reconnaissance de la rando du 19/03/22 randOxygene.]]></desc>
  </metadata>
  <trk>
    <name><![CDATA[Randonnée du 03/02/2022 à 09:34]]></name>
    <trkseg>
      <trkpt lat="43.16076" lon="3.05662">
        <ele>56</ele>
        <time>2022-02-03T09:34:48+01:00</time>
      </trkpt>
      <trkpt lat="43.16097" lon="3.05673">
        <ele>55</ele>
        <time>2022-02-03T09:35:52+01:00</time>
      </trkpt>
      <trkpt lat="43.16116" lon="3.05691">
        <ele>55</ele>
        <time>2022-02-03T09:36:18+01:00</time>
      </trkpt>
      <trkpt lat="43.16137" lon="3.05705">
        <ele>55</ele>
        <time>2022-02-03T09:36:40+01:00</time>
      </trkpt>
      <trkpt lat="43.16143" lon="3.05735">
        <ele>53</ele>
        <time>2022-02-03T09:37:45+01:00</time>
      </trkpt>
      <trkpt lat="43.16149" lon="3.05765">
        <ele>53</ele>
        <time>2022-02-03T09:38:06+01:00</time>
      </trkpt>
      <trkpt lat="43.16141" lon="3.05794">
        <ele>54</ele>
        <time>2022-02-03T09:39:05+01:00</time>
      </trkpt>
      <trkpt lat="43.16132" lon="3.05823">
        <ele>56</ele>
        <time>2022-02-03T09:39:48+01:00</time>
      </trkpt>
      <trkpt lat="43.16123" lon="3.05852">
        <ele>60</ele>
        <time>2022-02-03T09:40:09+01:00</time>
      </trkpt>
      <trkpt lat="43.16114" lon="3.0588">
        <ele>62</ele>
        <time>2022-02-03T09:40:28+01:00</time>
      </trkpt>
      <trkpt lat="43.16105" lon="3.05909">
        <ele>66</ele>
        <time>2022-02-03T09:40:49+01:00</time>
      </trkpt>
      <trkpt lat="43.16093" lon="3.05936">
        <ele>69</ele>
        <time>2022-02-03T09:41:10+01:00</time>
      </trkpt>
      <trkpt lat="43.16071" lon="3.05944">
        <ele>70</ele>
        <time>2022-02-03T09:41:41+01:00</time>
      </trkpt>
      <trkpt lat="43.16049" lon="3.05952">
        <ele>70</ele>
        <time>2022-02-03T09:42:04+01:00</time>
      </trkpt>
      <trkpt lat="43.16033" lon="3.05975">
        <ele>70</ele>
        <time>2022-02-03T09:42:29+01:00</time>
      </trkpt>
      <trkpt lat="43.16034" lon="3.06006">
        <ele>77</ele>
        <time>2022-02-03T09:43:59+01:00</time>
      </trkpt>
      <trkpt lat="43.16024" lon="3.06034">
        <ele>79</ele>
        <time>2022-02-03T09:44:28+01:00</time>
      </trkpt>
      <trkpt lat="43.16016" lon="3.06064">
        <ele>81</ele>
        <time>2022-02-03T09:44:48+01:00</time>
      </trkpt>
      <trkpt lat="43.1601" lon="3.06094">
        <ele>88</ele>
        <time>2022-02-03T09:45:12+01:00</time>
      </trkpt>
      <trkpt lat="43.15996" lon="3.06119">
        <ele>90</ele>
        <time>2022-02-03T09:45:40+01:00</time>
      </trkpt>
      <trkpt lat="43.15987" lon="3.06148">
        <ele>90</ele>
        <time>2022-02-03T09:45:57+01:00</time>
      </trkpt>
      <trkpt lat="43.15972" lon="3.06171">
        <ele>93</ele>
        <time>2022-02-03T09:46:20+01:00</time>
      </trkpt>
      <trkpt lat="43.1596" lon="3.06197">
        <ele>94</ele>
        <time>2022-02-03T09:46:42+01:00</time>
      </trkpt>
      <trkpt lat="43.15952" lon="3.06227">
        <ele>96</ele>
        <time>2022-02-03T09:47:03+01:00</time>
      </trkpt>
      <trkpt lat="43.15948" lon="3.06258">
        <ele>100</ele>
        <time>2022-02-03T09:47:25+01:00</time>
      </trkpt>
      <trkpt lat="43.15945" lon="3.06289">
        <ele>102</ele>
        <time>2022-02-03T09:47:45+01:00</time>
      </trkpt>
      <trkpt lat="43.1594" lon="3.0632">
        <ele>106</ele>
        <time>2022-02-03T09:48:07+01:00</time>
      </trkpt>
      <trkpt lat="43.15935" lon="3.06351">
        <ele>106</ele>
        <time>2022-02-03T09:48:28+01:00</time>
      </trkpt>
      <trkpt lat="43.15927" lon="3.06381">
        <ele>107</ele>
        <time>2022-02-03T09:48:48+01:00</time>
      </trkpt>
      <trkpt lat="43.15938" lon="3.06408">
        <ele>110</ele>
        <time>2022-02-03T09:49:08+01:00</time>
      </trkpt>
      <trkpt lat="43.15939" lon="3.0644">
        <ele>111</ele>
        <time>2022-02-03T09:49:30+01:00</time>
      </trkpt>
      <trkpt lat="43.15929" lon="3.0647">
        <ele>115</ele>
        <time>2022-02-03T09:49:52+01:00</time>
      </trkpt>
      <trkpt lat="43.15909" lon="3.06486">
        <ele>117</ele>
        <time>2022-02-03T09:50:12+01:00</time>
      </trkpt>
      <trkpt lat="43.15887" lon="3.06486">
        <ele>120</ele>
        <time>2022-02-03T09:50:31+01:00</time>
      </trkpt>
      <trkpt lat="43.15864" lon="3.06491">
        <ele>125</ele>
        <time>2022-02-03T09:50:52+01:00</time>
      </trkpt>
      <trkpt lat="43.15845" lon="3.06511">
        <ele>123</ele>
        <time>2022-02-03T09:51:14+01:00</time>
      </trkpt>
      <trkpt lat="43.15827" lon="3.06528">
        <ele>124</ele>
        <time>2022-02-03T09:51:36+01:00</time>
      </trkpt>
      <trkpt lat="43.15807" lon="3.06545">
        <ele>128</ele>
        <time>2022-02-03T09:51:57+01:00</time>
      </trkpt>
      <trkpt lat="43.15783" lon="3.06549">
        <ele>130</ele>
        <time>2022-02-03T09:52:18+01:00</time>
      </trkpt>
      <trkpt lat="43.1576" lon="3.06546">
        <ele>132</ele>
        <time>2022-02-03T09:52:53+01:00</time>
      </trkpt>
      <trkpt lat="43.15738" lon="3.06552">
        <ele>134</ele>
        <time>2022-02-03T09:53:13+01:00</time>
      </trkpt>
      <trkpt lat="43.15743" lon="3.06583">
        <ele>134</ele>
        <time>2022-02-03T09:53:35+01:00</time>
      </trkpt>
      <trkpt lat="43.15763" lon="3.066">
        <ele>138</ele>
        <time>2022-02-03T09:53:58+01:00</time>
      </trkpt>
      <trkpt lat="43.15782" lon="3.06617">
        <ele>140</ele>
        <time>2022-02-03T09:54:20+01:00</time>
      </trkpt>
      <trkpt lat="43.15794" lon="3.06643">
        <ele>143</ele>
        <time>2022-02-03T09:54:41+01:00</time>
      </trkpt>
      <trkpt lat="43.15795" lon="3.06675">
        <ele>145</ele>
        <time>2022-02-03T09:55:03+01:00</time>
      </trkpt>
      <trkpt lat="43.15785" lon="3.06704">
        <ele>148</ele>
        <time>2022-02-03T09:55:25+01:00</time>
      </trkpt>
      <trkpt lat="43.15795" lon="3.06732">
        <ele>152</ele>
        <time>2022-02-03T09:56:08+01:00</time>
      </trkpt>
      <trkpt lat="43.15816" lon="3.06748">
        <ele>155</ele>
        <time>2022-02-03T09:56:28+01:00</time>
      </trkpt>
      <trkpt lat="43.15792" lon="3.06747">
        <ele>161</ele>
        <time>2022-02-03T09:57:04+01:00</time>
      </trkpt>
      <trkpt lat="43.1577" lon="3.06742">
        <ele>163</ele>
        <time>2022-02-03T09:57:25+01:00</time>
      </trkpt>
      <trkpt lat="43.15748" lon="3.0673">
        <ele>166</ele>
        <time>2022-02-03T09:57:47+01:00</time>
      </trkpt>
      <trkpt lat="43.15725" lon="3.0673">
        <ele>166</ele>
        <time>2022-02-03T09:58:12+01:00</time>
      </trkpt>
      <trkpt lat="43.15708" lon="3.06753">
        <ele>170</ele>
        <time>2022-02-03T09:58:35+01:00</time>
      </trkpt>
      <trkpt lat="43.15685" lon="3.06757">
        <ele>171</ele>
        <time>2022-02-03T09:58:56+01:00</time>
      </trkpt>
      <trkpt lat="43.15662" lon="3.06757">
        <ele>175</ele>
        <time>2022-02-03T09:59:18+01:00</time>
      </trkpt>
      <trkpt lat="43.15644" lon="3.06777">
        <ele>176</ele>
        <time>2022-02-03T09:59:40+01:00</time>
      </trkpt>
      <trkpt lat="43.15634" lon="3.06804">
        <ele>179</ele>
        <time>2022-02-03T09:59:59+01:00</time>
      </trkpt>
      <trkpt lat="43.15622" lon="3.06832">
        <ele>179</ele>
        <time>2022-02-03T10:00:19+01:00</time>
      </trkpt>
      <trkpt lat="43.15613" lon="3.06861">
        <ele>181</ele>
        <time>2022-02-03T10:00:39+01:00</time>
      </trkpt>
      <trkpt lat="43.15608" lon="3.06893">
        <ele>182</ele>
        <time>2022-02-03T10:01:00+01:00</time>
      </trkpt>
      <trkpt lat="43.15601" lon="3.06923">
        <ele>184</ele>
        <time>2022-02-03T10:01:20+01:00</time>
      </trkpt>
      <trkpt lat="43.15586" lon="3.06946">
        <ele>183</ele>
        <time>2022-02-03T10:01:40+01:00</time>
      </trkpt>
      <trkpt lat="43.1557" lon="3.06969">
        <ele>186</ele>
        <time>2022-02-03T10:01:59+01:00</time>
      </trkpt>
      <trkpt lat="43.15549" lon="3.06983">
        <ele>189</ele>
        <time>2022-02-03T10:02:19+01:00</time>
      </trkpt>
      <trkpt lat="43.15532" lon="3.07002">
        <ele>189</ele>
        <time>2022-02-03T10:02:39+01:00</time>
      </trkpt>
      <trkpt lat="43.1552" lon="3.07029">
        <ele>192</ele>
        <time>2022-02-03T10:02:59+01:00</time>
      </trkpt>
      <trkpt lat="43.15505" lon="3.07054">
        <ele>193</ele>
        <time>2022-02-03T10:03:30+01:00</time>
      </trkpt>
      <trkpt lat="43.15487" lon="3.07035">
        <ele>193</ele>
        <time>2022-02-03T10:05:09+01:00</time>
      </trkpt>
      <trkpt lat="43.15472" lon="3.07011">
        <ele>192</ele>
        <time>2022-02-03T10:05:28+01:00</time>
      </trkpt>
      <trkpt lat="43.15457" lon="3.06988">
        <ele>193</ele>
        <time>2022-02-03T10:05:47+01:00</time>
      </trkpt>
      <trkpt lat="43.15445" lon="3.06961">
        <ele>193</ele>
        <time>2022-02-03T10:06:06+01:00</time>
      </trkpt>
      <trkpt lat="43.15433" lon="3.06936">
        <ele>193</ele>
        <time>2022-02-03T10:06:25+01:00</time>
      </trkpt>
      <trkpt lat="43.15419" lon="3.0691">
        <ele>196</ele>
        <time>2022-02-03T10:06:45+01:00</time>
      </trkpt>
      <trkpt lat="43.15408" lon="3.06883">
        <ele>196</ele>
        <time>2022-02-03T10:07:03+01:00</time>
      </trkpt>
      <trkpt lat="43.15398" lon="3.06854">
        <ele>196</ele>
        <time>2022-02-03T10:07:22+01:00</time>
      </trkpt>
      <trkpt lat="43.15387" lon="3.06827">
        <ele>198</ele>
        <time>2022-02-03T10:07:41+01:00</time>
      </trkpt>
      <trkpt lat="43.15378" lon="3.06798">
        <ele>198</ele>
        <time>2022-02-03T10:08:00+01:00</time>
      </trkpt>
      <trkpt lat="43.15372" lon="3.06767">
        <ele>199</ele>
        <time>2022-02-03T10:08:20+01:00</time>
      </trkpt>
      <trkpt lat="43.15371" lon="3.06735">
        <ele>200</ele>
        <time>2022-02-03T10:08:39+01:00</time>
      </trkpt>
      <trkpt lat="43.15374" lon="3.06704">
        <ele>200</ele>
        <time>2022-02-03T10:08:58+01:00</time>
      </trkpt>
      <trkpt lat="43.15378" lon="3.06673">
        <ele>200</ele>
        <time>2022-02-03T10:09:17+01:00</time>
      </trkpt>
      <trkpt lat="43.15382" lon="3.06643">
        <ele>200</ele>
        <time>2022-02-03T10:09:38+01:00</time>
      </trkpt>
      <trkpt lat="43.15396" lon="3.06618">
        <ele>198</ele>
        <time>2022-02-03T10:11:00+01:00</time>
      </trkpt>
      <trkpt lat="43.1538" lon="3.06641">
        <ele>201</ele>
        <time>2022-02-03T10:19:00+01:00</time>
      </trkpt>
      <trkpt lat="43.15377" lon="3.06672">
        <ele>200</ele>
        <time>2022-02-03T10:19:21+01:00</time>
      </trkpt>
      <trkpt lat="43.15374" lon="3.06702">
        <ele>200</ele>
        <time>2022-02-03T10:19:41+01:00</time>
      </trkpt>
      <trkpt lat="43.15369" lon="3.06733">
        <ele>199</ele>
        <time>2022-02-03T10:20:10+01:00</time>
      </trkpt>
      <trkpt lat="43.15371" lon="3.06765">
        <ele>198</ele>
        <time>2022-02-03T10:20:30+01:00</time>
      </trkpt>
      <trkpt lat="43.15376" lon="3.06795">
        <ele>198</ele>
        <time>2022-02-03T10:20:50+01:00</time>
      </trkpt>
      <trkpt lat="43.15386" lon="3.06824">
        <ele>196</ele>
        <time>2022-02-03T10:21:08+01:00</time>
      </trkpt>
      <trkpt lat="43.15396" lon="3.06852">
        <ele>196</ele>
        <time>2022-02-03T10:21:28+01:00</time>
      </trkpt>
      <trkpt lat="43.15406" lon="3.06879">
        <ele>195</ele>
        <time>2022-02-03T10:21:48+01:00</time>
      </trkpt>
      <trkpt lat="43.15417" lon="3.06908">
        <ele>194</ele>
        <time>2022-02-03T10:22:08+01:00</time>
      </trkpt>
      <trkpt lat="43.15428" lon="3.06936">
        <ele>194</ele>
        <time>2022-02-03T10:22:26+01:00</time>
      </trkpt>
      <trkpt lat="43.15442" lon="3.06962">
        <ele>194</ele>
        <time>2022-02-03T10:22:46+01:00</time>
      </trkpt>
      <trkpt lat="43.15456" lon="3.06987">
        <ele>194</ele>
        <time>2022-02-03T10:23:05+01:00</time>
      </trkpt>
      <trkpt lat="43.15471" lon="3.07012">
        <ele>194</ele>
        <time>2022-02-03T10:23:24+01:00</time>
      </trkpt>
      <trkpt lat="43.15486" lon="3.07036">
        <ele>194</ele>
        <time>2022-02-03T10:23:43+01:00</time>
      </trkpt>
      <trkpt lat="43.15501" lon="3.0706">
        <ele>193</ele>
        <time>2022-02-03T10:24:05+01:00</time>
      </trkpt>
      <trkpt lat="43.15492" lon="3.0709">
        <ele>192</ele>
        <time>2022-02-03T10:24:26+01:00</time>
      </trkpt>
      <trkpt lat="43.1548" lon="3.07116">
        <ele>192</ele>
        <time>2022-02-03T10:24:46+01:00</time>
      </trkpt>
      <trkpt lat="43.15466" lon="3.07143">
        <ele>193</ele>
        <time>2022-02-03T10:25:05+01:00</time>
      </trkpt>
      <trkpt lat="43.15454" lon="3.07169">
        <ele>193</ele>
        <time>2022-02-03T10:25:24+01:00</time>
      </trkpt>
      <trkpt lat="43.1544" lon="3.07194">
        <ele>193</ele>
        <time>2022-02-03T10:25:42+01:00</time>
      </trkpt>
      <trkpt lat="43.15429" lon="3.07222">
        <ele>193</ele>
        <time>2022-02-03T10:26:01+01:00</time>
      </trkpt>
      <trkpt lat="43.1542" lon="3.07251">
        <ele>192</ele>
        <time>2022-02-03T10:26:20+01:00</time>
      </trkpt>
      <trkpt lat="43.15408" lon="3.07277">
        <ele>192</ele>
        <time>2022-02-03T10:26:38+01:00</time>
      </trkpt>
      <trkpt lat="43.15397" lon="3.07305">
        <ele>192</ele>
        <time>2022-02-03T10:26:59+01:00</time>
      </trkpt>
      <trkpt lat="43.15396" lon="3.07338">
        <ele>191</ele>
        <time>2022-02-03T10:27:20+01:00</time>
      </trkpt>
      <trkpt lat="43.15397" lon="3.0737">
        <ele>192</ele>
        <time>2022-02-03T10:27:38+01:00</time>
      </trkpt>
      <trkpt lat="43.15399" lon="3.07401">
        <ele>193</ele>
        <time>2022-02-03T10:27:57+01:00</time>
      </trkpt>
      <trkpt lat="43.15399" lon="3.07432">
        <ele>194</ele>
        <time>2022-02-03T10:28:16+01:00</time>
      </trkpt>
      <trkpt lat="43.15396" lon="3.07463">
        <ele>194</ele>
        <time>2022-02-03T10:28:34+01:00</time>
      </trkpt>
      <trkpt lat="43.15393" lon="3.07495">
        <ele>194</ele>
        <time>2022-02-03T10:28:53+01:00</time>
      </trkpt>
      <trkpt lat="43.15387" lon="3.07525">
        <ele>195</ele>
        <time>2022-02-03T10:30:11+01:00</time>
      </trkpt>
      <trkpt lat="43.1539" lon="3.07557">
        <ele>191</ele>
        <time>2022-02-03T10:30:33+01:00</time>
      </trkpt>
      <trkpt lat="43.15393" lon="3.07588">
        <ele>190</ele>
        <time>2022-02-03T10:30:51+01:00</time>
      </trkpt>
      <trkpt lat="43.15396" lon="3.07619">
        <ele>192</ele>
        <time>2022-02-03T10:31:08+01:00</time>
      </trkpt>
      <trkpt lat="43.15403" lon="3.0765">
        <ele>191</ele>
        <time>2022-02-03T10:31:56+01:00</time>
      </trkpt>
      <trkpt lat="43.15407" lon="3.07681">
        <ele>191</ele>
        <time>2022-02-03T10:32:19+01:00</time>
      </trkpt>
      <trkpt lat="43.1541" lon="3.07713">
        <ele>190</ele>
        <time>2022-02-03T10:32:38+01:00</time>
      </trkpt>
      <trkpt lat="43.15413" lon="3.07744">
        <ele>190</ele>
        <time>2022-02-03T10:32:56+01:00</time>
      </trkpt>
      <trkpt lat="43.15416" lon="3.07775">
        <ele>191</ele>
        <time>2022-02-03T10:33:14+01:00</time>
      </trkpt>
      <trkpt lat="43.15419" lon="3.07806">
        <ele>190</ele>
        <time>2022-02-03T10:36:01+01:00</time>
      </trkpt>
      <trkpt lat="43.15419" lon="3.07838">
        <ele>190</ele>
        <time>2022-02-03T10:36:31+01:00</time>
      </trkpt>
      <trkpt lat="43.1542" lon="3.07869">
        <ele>190</ele>
        <time>2022-02-03T10:36:50+01:00</time>
      </trkpt>
      <trkpt lat="43.15421" lon="3.079">
        <ele>188</ele>
        <time>2022-02-03T10:37:08+01:00</time>
      </trkpt>
      <trkpt lat="43.15422" lon="3.07931">
        <ele>188</ele>
        <time>2022-02-03T10:37:26+01:00</time>
      </trkpt>
      <trkpt lat="43.15422" lon="3.07962">
        <ele>189</ele>
        <time>2022-02-03T10:37:43+01:00</time>
      </trkpt>
      <trkpt lat="43.15423" lon="3.07993">
        <ele>190</ele>
        <time>2022-02-03T10:38:01+01:00</time>
      </trkpt>
      <trkpt lat="43.15419" lon="3.08025">
        <ele>191</ele>
        <time>2022-02-03T10:38:20+01:00</time>
      </trkpt>
      <trkpt lat="43.15411" lon="3.08055">
        <ele>192</ele>
        <time>2022-02-03T10:38:38+01:00</time>
      </trkpt>
      <trkpt lat="43.15405" lon="3.08085">
        <ele>193</ele>
        <time>2022-02-03T10:38:56+01:00</time>
      </trkpt>
      <trkpt lat="43.15406" lon="3.08117">
        <ele>192</ele>
        <time>2022-02-03T10:39:19+01:00</time>
      </trkpt>
      <trkpt lat="43.1541" lon="3.08147">
        <ele>192</ele>
        <time>2022-02-03T10:39:40+01:00</time>
      </trkpt>
      <trkpt lat="43.15411" lon="3.08178">
        <ele>192</ele>
        <time>2022-02-03T10:39:59+01:00</time>
      </trkpt>
      <trkpt lat="43.1541" lon="3.08209">
        <ele>192</ele>
        <time>2022-02-03T10:40:17+01:00</time>
      </trkpt>
      <trkpt lat="43.15409" lon="3.0824">
        <ele>191</ele>
        <time>2022-02-03T10:40:35+01:00</time>
      </trkpt>
      <trkpt lat="43.1541" lon="3.08272">
        <ele>191</ele>
        <time>2022-02-03T10:40:53+01:00</time>
      </trkpt>
      <trkpt lat="43.15409" lon="3.08303">
        <ele>191</ele>
        <time>2022-02-03T10:41:11+01:00</time>
      </trkpt>
      <trkpt lat="43.15408" lon="3.08334">
        <ele>191</ele>
        <time>2022-02-03T10:41:29+01:00</time>
      </trkpt>
      <trkpt lat="43.15406" lon="3.08364">
        <ele>191</ele>
        <time>2022-02-03T10:41:47+01:00</time>
      </trkpt>
      <trkpt lat="43.15402" lon="3.08395">
        <ele>191</ele>
        <time>2022-02-03T10:42:05+01:00</time>
      </trkpt>
      <trkpt lat="43.15396" lon="3.08425">
        <ele>190</ele>
        <time>2022-02-03T10:42:23+01:00</time>
      </trkpt>
      <trkpt lat="43.15389" lon="3.08454">
        <ele>190</ele>
        <time>2022-02-03T10:42:41+01:00</time>
      </trkpt>
      <trkpt lat="43.15385" lon="3.08486">
        <ele>189</ele>
        <time>2022-02-03T10:42:59+01:00</time>
      </trkpt>
      <trkpt lat="43.15382" lon="3.08517">
        <ele>188</ele>
        <time>2022-02-03T10:43:17+01:00</time>
      </trkpt>
      <trkpt lat="43.15377" lon="3.08547">
        <ele>187</ele>
        <time>2022-02-03T10:43:35+01:00</time>
      </trkpt>
      <trkpt lat="43.1537" lon="3.08578">
        <ele>187</ele>
        <time>2022-02-03T10:43:53+01:00</time>
      </trkpt>
      <trkpt lat="43.15367" lon="3.08609">
        <ele>185</ele>
        <time>2022-02-03T10:44:11+01:00</time>
      </trkpt>
      <trkpt lat="43.15379" lon="3.08637">
        <ele>184</ele>
        <time>2022-02-03T10:44:29+01:00</time>
      </trkpt>
      <trkpt lat="43.1539" lon="3.08666">
        <ele>184</ele>
        <time>2022-02-03T10:44:48+01:00</time>
      </trkpt>
      <trkpt lat="43.15399" lon="3.08694">
        <ele>184</ele>
        <time>2022-02-03T10:45:07+01:00</time>
      </trkpt>
      <trkpt lat="43.1541" lon="3.08722">
        <ele>185</ele>
        <time>2022-02-03T10:45:26+01:00</time>
      </trkpt>
      <trkpt lat="43.1542" lon="3.08749">
        <ele>186</ele>
        <time>2022-02-03T10:45:45+01:00</time>
      </trkpt>
      <trkpt lat="43.15426" lon="3.0878">
        <ele>185</ele>
        <time>2022-02-03T10:46:04+01:00</time>
      </trkpt>
      <trkpt lat="43.15429" lon="3.08811">
        <ele>186</ele>
        <time>2022-02-03T10:46:23+01:00</time>
      </trkpt>
      <trkpt lat="43.15437" lon="3.0884">
        <ele>185</ele>
        <time>2022-02-03T10:46:42+01:00</time>
      </trkpt>
      <trkpt lat="43.1545" lon="3.08865">
        <ele>185</ele>
        <time>2022-02-03T10:47:01+01:00</time>
      </trkpt>
      <trkpt lat="43.15466" lon="3.08889">
        <ele>186</ele>
        <time>2022-02-03T10:47:20+01:00</time>
      </trkpt>
      <trkpt lat="43.15481" lon="3.08911">
        <ele>188</ele>
        <time>2022-02-03T10:47:38+01:00</time>
      </trkpt>
      <trkpt lat="43.15498" lon="3.08934">
        <ele>188</ele>
        <time>2022-02-03T10:47:58+01:00</time>
      </trkpt>
      <trkpt lat="43.15513" lon="3.08958">
        <ele>190</ele>
        <time>2022-02-03T10:48:17+01:00</time>
      </trkpt>
      <trkpt lat="43.15528" lon="3.08982">
        <ele>191</ele>
        <time>2022-02-03T10:48:35+01:00</time>
      </trkpt>
      <trkpt lat="43.15542" lon="3.09007">
        <ele>191</ele>
        <time>2022-02-03T10:48:54+01:00</time>
      </trkpt>
      <trkpt lat="43.15558" lon="3.09031">
        <ele>191</ele>
        <time>2022-02-03T10:49:15+01:00</time>
      </trkpt>
      <trkpt lat="43.15573" lon="3.09055">
        <ele>193</ele>
        <time>2022-02-03T10:49:33+01:00</time>
      </trkpt>
      <trkpt lat="43.15589" lon="3.09078">
        <ele>192</ele>
        <time>2022-02-03T10:49:52+01:00</time>
      </trkpt>
      <trkpt lat="43.15604" lon="3.091">
        <ele>193</ele>
        <time>2022-02-03T10:50:11+01:00</time>
      </trkpt>
      <trkpt lat="43.15618" lon="3.09127">
        <ele>194</ele>
        <time>2022-02-03T10:50:30+01:00</time>
      </trkpt>
      <trkpt lat="43.15625" lon="3.09157">
        <ele>195</ele>
        <time>2022-02-03T10:50:49+01:00</time>
      </trkpt>
      <trkpt lat="43.15628" lon="3.09189">
        <ele>196</ele>
        <time>2022-02-03T10:51:08+01:00</time>
      </trkpt>
      <trkpt lat="43.15632" lon="3.0922">
        <ele>197</ele>
        <time>2022-02-03T10:51:27+01:00</time>
      </trkpt>
      <trkpt lat="43.15637" lon="3.09251">
        <ele>198</ele>
        <time>2022-02-03T10:51:46+01:00</time>
      </trkpt>
      <trkpt lat="43.15643" lon="3.09281">
        <ele>200</ele>
        <time>2022-02-03T10:52:04+01:00</time>
      </trkpt>
      <trkpt lat="43.15647" lon="3.09311">
        <ele>198</ele>
        <time>2022-02-03T10:52:23+01:00</time>
      </trkpt>
      <trkpt lat="43.15655" lon="3.09341">
        <ele>198</ele>
        <time>2022-02-03T10:52:42+01:00</time>
      </trkpt>
      <trkpt lat="43.15664" lon="3.09371">
        <ele>199</ele>
        <time>2022-02-03T10:53:00+01:00</time>
      </trkpt>
      <trkpt lat="43.15676" lon="3.09398">
        <ele>199</ele>
        <time>2022-02-03T10:53:19+01:00</time>
      </trkpt>
      <trkpt lat="43.15694" lon="3.09417">
        <ele>199</ele>
        <time>2022-02-03T10:53:37+01:00</time>
      </trkpt>
      <trkpt lat="43.15709" lon="3.09442">
        <ele>200</ele>
        <time>2022-02-03T10:53:56+01:00</time>
      </trkpt>
      <trkpt lat="43.15718" lon="3.0947">
        <ele>201</ele>
        <time>2022-02-03T10:54:17+01:00</time>
      </trkpt>
      <trkpt lat="43.15731" lon="3.09496">
        <ele>202</ele>
        <time>2022-02-03T10:54:36+01:00</time>
      </trkpt>
      <trkpt lat="43.15742" lon="3.09525">
        <ele>202</ele>
        <time>2022-02-03T10:54:56+01:00</time>
      </trkpt>
      <trkpt lat="43.15754" lon="3.09551">
        <ele>202</ele>
        <time>2022-02-03T10:55:18+01:00</time>
      </trkpt>
      <trkpt lat="43.15767" lon="3.09578">
        <ele>203</ele>
        <time>2022-02-03T10:55:37+01:00</time>
      </trkpt>
      <trkpt lat="43.1577" lon="3.09609">
        <ele>205</ele>
        <time>2022-02-03T10:59:54+01:00</time>
      </trkpt>
      <trkpt lat="43.15772" lon="3.09639">
        <ele>204</ele>
        <time>2022-02-03T11:00:21+01:00</time>
      </trkpt>
      <trkpt lat="43.15769" lon="3.09671">
        <ele>205</ele>
        <time>2022-02-03T11:00:41+01:00</time>
      </trkpt>
      <trkpt lat="43.15777" lon="3.09701">
        <ele>202</ele>
        <time>2022-02-03T11:01:11+01:00</time>
      </trkpt>
      <trkpt lat="43.15784" lon="3.0973">
        <ele>202</ele>
        <time>2022-02-03T11:01:30+01:00</time>
      </trkpt>
      <trkpt lat="43.15803" lon="3.09748">
        <ele>204</ele>
        <time>2022-02-03T11:01:57+01:00</time>
      </trkpt>
      <trkpt lat="43.15825" lon="3.09738">
        <ele>204</ele>
        <time>2022-02-03T11:02:17+01:00</time>
      </trkpt>
      <trkpt lat="43.1583" lon="3.09708">
        <ele>205</ele>
        <time>2022-02-03T11:02:48+01:00</time>
      </trkpt>
      <trkpt lat="43.15845" lon="3.09731">
        <ele>206</ele>
        <time>2022-02-03T11:04:04+01:00</time>
      </trkpt>
      <trkpt lat="43.15868" lon="3.09726">
        <ele>207</ele>
        <time>2022-02-03T11:04:26+01:00</time>
      </trkpt>
      <trkpt lat="43.15888" lon="3.09711">
        <ele>206</ele>
        <time>2022-02-03T11:04:46+01:00</time>
      </trkpt>
      <trkpt lat="43.1591" lon="3.09702">
        <ele>210</ele>
        <time>2022-02-03T11:05:07+01:00</time>
      </trkpt>
      <trkpt lat="43.15927" lon="3.09724">
        <ele>211</ele>
        <time>2022-02-03T11:05:33+01:00</time>
      </trkpt>
      <trkpt lat="43.15934" lon="3.09753">
        <ele>212</ele>
        <time>2022-02-03T11:05:58+01:00</time>
      </trkpt>
      <trkpt lat="43.15942" lon="3.09782">
        <ele>214</ele>
        <time>2022-02-03T11:06:17+01:00</time>
      </trkpt>
      <trkpt lat="43.15954" lon="3.09809">
        <ele>214</ele>
        <time>2022-02-03T11:06:38+01:00</time>
      </trkpt>
      <trkpt lat="43.15962" lon="3.09838">
        <ele>212</ele>
        <time>2022-02-03T11:06:58+01:00</time>
      </trkpt>
      <trkpt lat="43.15971" lon="3.09867">
        <ele>214</ele>
        <time>2022-02-03T11:07:16+01:00</time>
      </trkpt>
      <trkpt lat="43.15981" lon="3.09896">
        <ele>217</ele>
        <time>2022-02-03T11:07:36+01:00</time>
      </trkpt>
      <trkpt lat="43.15991" lon="3.09924">
        <ele>218</ele>
        <time>2022-02-03T11:07:58+01:00</time>
      </trkpt>
      <trkpt lat="43.16" lon="3.09953">
        <ele>219</ele>
        <time>2022-02-03T11:08:18+01:00</time>
      </trkpt>
      <trkpt lat="43.16004" lon="3.09985">
        <ele>219</ele>
        <time>2022-02-03T11:08:38+01:00</time>
      </trkpt>
      <trkpt lat="43.16008" lon="3.10016">
        <ele>217</ele>
        <time>2022-02-03T11:08:58+01:00</time>
      </trkpt>
      <trkpt lat="43.16012" lon="3.10046">
        <ele>217</ele>
        <time>2022-02-03T11:09:17+01:00</time>
      </trkpt>
      <trkpt lat="43.16014" lon="3.10077">
        <ele>218</ele>
        <time>2022-02-03T11:09:35+01:00</time>
      </trkpt>
      <trkpt lat="43.16022" lon="3.10107">
        <ele>219</ele>
        <time>2022-02-03T11:09:55+01:00</time>
      </trkpt>
      <trkpt lat="43.16032" lon="3.10136">
        <ele>219</ele>
        <time>2022-02-03T11:10:15+01:00</time>
      </trkpt>
      <trkpt lat="43.16043" lon="3.10163">
        <ele>218</ele>
        <time>2022-02-03T11:10:36+01:00</time>
      </trkpt>
      <trkpt lat="43.16053" lon="3.10191">
        <ele>216</ele>
        <time>2022-02-03T11:10:57+01:00</time>
      </trkpt>
      <trkpt lat="43.16064" lon="3.10219">
        <ele>214</ele>
        <time>2022-02-03T11:11:19+01:00</time>
      </trkpt>
      <trkpt lat="43.16071" lon="3.10249">
        <ele>214</ele>
        <time>2022-02-03T11:11:38+01:00</time>
      </trkpt>
      <trkpt lat="43.16081" lon="3.10278">
        <ele>212</ele>
        <time>2022-02-03T11:12:00+01:00</time>
      </trkpt>
      <trkpt lat="43.16089" lon="3.10308">
        <ele>211</ele>
        <time>2022-02-03T11:12:20+01:00</time>
      </trkpt>
      <trkpt lat="43.16098" lon="3.10338">
        <ele>209</ele>
        <time>2022-02-03T11:12:42+01:00</time>
      </trkpt>
      <trkpt lat="43.16106" lon="3.10367">
        <ele>208</ele>
        <time>2022-02-03T11:13:01+01:00</time>
      </trkpt>
      <trkpt lat="43.1611" lon="3.10398">
        <ele>206</ele>
        <time>2022-02-03T11:13:21+01:00</time>
      </trkpt>
      <trkpt lat="43.16109" lon="3.10429">
        <ele>205</ele>
        <time>2022-02-03T11:13:41+01:00</time>
      </trkpt>
      <trkpt lat="43.16114" lon="3.1046">
        <ele>203</ele>
        <time>2022-02-03T11:14:01+01:00</time>
      </trkpt>
      <trkpt lat="43.16122" lon="3.1049">
        <ele>202</ele>
        <time>2022-02-03T11:14:21+01:00</time>
      </trkpt>
      <trkpt lat="43.16134" lon="3.10516">
        <ele>200</ele>
        <time>2022-02-03T11:14:40+01:00</time>
      </trkpt>
      <trkpt lat="43.16142" lon="3.10546">
        <ele>201</ele>
        <time>2022-02-03T11:15:01+01:00</time>
      </trkpt>
      <trkpt lat="43.16155" lon="3.10572">
        <ele>199</ele>
        <time>2022-02-03T11:15:20+01:00</time>
      </trkpt>
      <trkpt lat="43.16171" lon="3.10595">
        <ele>198</ele>
        <time>2022-02-03T11:15:42+01:00</time>
      </trkpt>
      <trkpt lat="43.16191" lon="3.10611">
        <ele>196</ele>
        <time>2022-02-03T11:16:03+01:00</time>
      </trkpt>
      <trkpt lat="43.16202" lon="3.10638">
        <ele>196</ele>
        <time>2022-02-03T11:16:22+01:00</time>
      </trkpt>
      <trkpt lat="43.16198" lon="3.10669">
        <ele>194</ele>
        <time>2022-02-03T11:16:43+01:00</time>
      </trkpt>
      <trkpt lat="43.16195" lon="3.107">
        <ele>193</ele>
        <time>2022-02-03T11:17:03+01:00</time>
      </trkpt>
      <trkpt lat="43.16195" lon="3.10731">
        <ele>192</ele>
        <time>2022-02-03T11:17:23+01:00</time>
      </trkpt>
      <trkpt lat="43.16212" lon="3.10753">
        <ele>192</ele>
        <time>2022-02-03T11:17:46+01:00</time>
      </trkpt>
      <trkpt lat="43.16234" lon="3.1076">
        <ele>191</ele>
        <time>2022-02-03T11:18:05+01:00</time>
      </trkpt>
      <trkpt lat="43.16257" lon="3.10769">
        <ele>190</ele>
        <time>2022-02-03T11:18:26+01:00</time>
      </trkpt>
      <trkpt lat="43.16279" lon="3.10776">
        <ele>189</ele>
        <time>2022-02-03T11:18:47+01:00</time>
      </trkpt>
      <trkpt lat="43.16296" lon="3.10796">
        <ele>185</ele>
        <time>2022-02-03T11:19:10+01:00</time>
      </trkpt>
      <trkpt lat="43.16315" lon="3.1078">
        <ele>183</ele>
        <time>2022-02-03T11:19:35+01:00</time>
      </trkpt>
      <trkpt lat="43.16314" lon="3.10748">
        <ele>180</ele>
        <time>2022-02-03T11:19:59+01:00</time>
      </trkpt>
      <trkpt lat="43.16332" lon="3.10728">
        <ele>178</ele>
        <time>2022-02-03T11:20:19+01:00</time>
      </trkpt>
      <trkpt lat="43.16346" lon="3.10704">
        <ele>179</ele>
        <time>2022-02-03T11:20:39+01:00</time>
      </trkpt>
      <trkpt lat="43.16359" lon="3.10677">
        <ele>180</ele>
        <time>2022-02-03T11:20:59+01:00</time>
      </trkpt>
      <trkpt lat="43.16374" lon="3.10655">
        <ele>182</ele>
        <time>2022-02-03T11:21:21+01:00</time>
      </trkpt>
      <trkpt lat="43.16377" lon="3.10686">
        <ele>183</ele>
        <time>2022-02-03T11:21:50+01:00</time>
      </trkpt>
      <trkpt lat="43.1637" lon="3.10717">
        <ele>184</ele>
        <time>2022-02-03T11:22:11+01:00</time>
      </trkpt>
      <trkpt lat="43.16381" lon="3.10745">
        <ele>187</ele>
        <time>2022-02-03T11:22:34+01:00</time>
      </trkpt>
      <trkpt lat="43.16397" lon="3.10766">
        <ele>190</ele>
        <time>2022-02-03T11:22:58+01:00</time>
      </trkpt>
      <trkpt lat="43.16406" lon="3.10795">
        <ele>191</ele>
        <time>2022-02-03T11:23:19+01:00</time>
      </trkpt>
      <trkpt lat="43.16413" lon="3.10825">
        <ele>192</ele>
        <time>2022-02-03T11:23:39+01:00</time>
      </trkpt>
      <trkpt lat="43.16421" lon="3.10854">
        <ele>193</ele>
        <time>2022-02-03T11:23:58+01:00</time>
      </trkpt>
      <trkpt lat="43.16428" lon="3.10884">
        <ele>194</ele>
        <time>2022-02-03T11:24:18+01:00</time>
      </trkpt>
      <trkpt lat="43.16436" lon="3.10914">
        <ele>195</ele>
        <time>2022-02-03T11:24:38+01:00</time>
      </trkpt>
      <trkpt lat="43.16447" lon="3.10942">
        <ele>195</ele>
        <time>2022-02-03T11:24:57+01:00</time>
      </trkpt>
      <trkpt lat="43.16437" lon="3.1097">
        <ele>195</ele>
        <time>2022-02-03T11:30:34+01:00</time>
      </trkpt>
      <trkpt lat="43.1642" lon="3.10991">
        <ele>193</ele>
        <time>2022-02-03T11:30:54+01:00</time>
      </trkpt>
      <trkpt lat="43.16403" lon="3.11012">
        <ele>192</ele>
        <time>2022-02-03T11:31:13+01:00</time>
      </trkpt>
      <trkpt lat="43.16385" lon="3.11033">
        <ele>191</ele>
        <time>2022-02-03T11:31:33+01:00</time>
      </trkpt>
      <trkpt lat="43.16368" lon="3.11055">
        <ele>190</ele>
        <time>2022-02-03T11:31:52+01:00</time>
      </trkpt>
      <trkpt lat="43.16353" lon="3.1108">
        <ele>189</ele>
        <time>2022-02-03T11:32:10+01:00</time>
      </trkpt>
      <trkpt lat="43.16345" lon="3.11109">
        <ele>189</ele>
        <time>2022-02-03T11:32:28+01:00</time>
      </trkpt>
      <trkpt lat="43.16341" lon="3.11141">
        <ele>188</ele>
        <time>2022-02-03T11:32:48+01:00</time>
      </trkpt>
      <trkpt lat="43.1634" lon="3.11172">
        <ele>188</ele>
        <time>2022-02-03T11:33:07+01:00</time>
      </trkpt>
      <trkpt lat="43.16342" lon="3.11204">
        <ele>187</ele>
        <time>2022-02-03T11:33:26+01:00</time>
      </trkpt>
      <trkpt lat="43.16344" lon="3.11234">
        <ele>186</ele>
        <time>2022-02-03T11:33:44+01:00</time>
      </trkpt>
      <trkpt lat="43.16348" lon="3.11265">
        <ele>186</ele>
        <time>2022-02-03T11:34:03+01:00</time>
      </trkpt>
      <trkpt lat="43.16366" lon="3.11284">
        <ele>187</ele>
        <time>2022-02-03T11:34:35+01:00</time>
      </trkpt>
      <trkpt lat="43.16386" lon="3.11301">
        <ele>189</ele>
        <time>2022-02-03T11:35:00+01:00</time>
      </trkpt>
      <trkpt lat="43.16406" lon="3.11316">
        <ele>190</ele>
        <time>2022-02-03T11:35:24+01:00</time>
      </trkpt>
      <trkpt lat="43.16423" lon="3.11338">
        <ele>191</ele>
        <time>2022-02-03T11:35:47+01:00</time>
      </trkpt>
      <trkpt lat="43.16441" lon="3.11357">
        <ele>192</ele>
        <time>2022-02-03T11:36:08+01:00</time>
      </trkpt>
      <trkpt lat="43.1646" lon="3.11375">
        <ele>193</ele>
        <time>2022-02-03T11:36:28+01:00</time>
      </trkpt>
      <trkpt lat="43.16478" lon="3.11394">
        <ele>194</ele>
        <time>2022-02-03T11:36:51+01:00</time>
      </trkpt>
      <trkpt lat="43.16496" lon="3.11414">
        <ele>194</ele>
        <time>2022-02-03T11:37:13+01:00</time>
      </trkpt>
      <trkpt lat="43.16513" lon="3.11434">
        <ele>194</ele>
        <time>2022-02-03T11:37:34+01:00</time>
      </trkpt>
      <trkpt lat="43.16532" lon="3.11453">
        <ele>194</ele>
        <time>2022-02-03T11:37:55+01:00</time>
      </trkpt>
      <trkpt lat="43.16549" lon="3.11474">
        <ele>194</ele>
        <time>2022-02-03T11:41:04+01:00</time>
      </trkpt>
      <trkpt lat="43.16568" lon="3.11493">
        <ele>192</ele>
        <time>2022-02-03T11:41:28+01:00</time>
      </trkpt>
      <trkpt lat="43.16586" lon="3.11512">
        <ele>190</ele>
        <time>2022-02-03T11:41:51+01:00</time>
      </trkpt>
      <trkpt lat="43.16603" lon="3.11533">
        <ele>186</ele>
        <time>2022-02-03T11:42:18+01:00</time>
      </trkpt>
      <trkpt lat="43.1662" lon="3.11553">
        <ele>183</ele>
        <time>2022-02-03T11:42:45+01:00</time>
      </trkpt>
      <trkpt lat="43.16641" lon="3.11566">
        <ele>181</ele>
        <time>2022-02-03T11:43:20+01:00</time>
      </trkpt>
      <trkpt lat="43.16658" lon="3.11544">
        <ele>178</ele>
        <time>2022-02-03T11:43:46+01:00</time>
      </trkpt>
      <trkpt lat="43.1668" lon="3.11539">
        <ele>173</ele>
        <time>2022-02-03T11:44:14+01:00</time>
      </trkpt>
      <trkpt lat="43.16685" lon="3.11569">
        <ele>176</ele>
        <time>2022-02-03T11:45:02+01:00</time>
      </trkpt>
      <trkpt lat="43.16689" lon="3.116">
        <ele>171</ele>
        <time>2022-02-03T11:45:59+01:00</time>
      </trkpt>
      <trkpt lat="43.16692" lon="3.11631">
        <ele>169</ele>
        <time>2022-02-03T11:46:23+01:00</time>
      </trkpt>
      <trkpt lat="43.16685" lon="3.11661">
        <ele>169</ele>
        <time>2022-02-03T11:47:25+01:00</time>
      </trkpt>
      <trkpt lat="43.16674" lon="3.11688">
        <ele>167</ele>
        <time>2022-02-03T11:47:44+01:00</time>
      </trkpt>
      <trkpt lat="43.16669" lon="3.11718">
        <ele>167</ele>
        <time>2022-02-03T11:48:04+01:00</time>
      </trkpt>
      <trkpt lat="43.16674" lon="3.11687">
        <ele>169</ele>
        <time>2022-02-03T11:49:00+01:00</time>
      </trkpt>
      <trkpt lat="43.16688" lon="3.11661">
        <ele>170</ele>
        <time>2022-02-03T11:49:21+01:00</time>
      </trkpt>
      <trkpt lat="43.16696" lon="3.1169">
        <ele>172</ele>
        <time>2022-02-03T11:49:58+01:00</time>
      </trkpt>
      <trkpt lat="43.16691" lon="3.11721">
        <ele>172</ele>
        <time>2022-02-03T11:50:17+01:00</time>
      </trkpt>
      <trkpt lat="43.16686" lon="3.11752">
        <ele>172</ele>
        <time>2022-02-03T11:50:36+01:00</time>
      </trkpt>
      <trkpt lat="43.1668" lon="3.11782">
        <ele>172</ele>
        <time>2022-02-03T11:51:56+01:00</time>
      </trkpt>
      <trkpt lat="43.1667" lon="3.1181">
        <ele>173</ele>
        <time>2022-02-03T11:52:16+01:00</time>
      </trkpt>
      <trkpt lat="43.16657" lon="3.11837">
        <ele>173</ele>
        <time>2022-02-03T11:52:36+01:00</time>
      </trkpt>
      <trkpt lat="43.16652" lon="3.11868">
        <ele>174</ele>
        <time>2022-02-03T11:52:57+01:00</time>
      </trkpt>
      <trkpt lat="43.16652" lon="3.11899">
        <ele>174</ele>
        <time>2022-02-03T11:53:20+01:00</time>
      </trkpt>
      <trkpt lat="43.16659" lon="3.11929">
        <ele>175</ele>
        <time>2022-02-03T11:53:42+01:00</time>
      </trkpt>
      <trkpt lat="43.16674" lon="3.11954">
        <ele>176</ele>
        <time>2022-02-03T11:54:04+01:00</time>
      </trkpt>
      <trkpt lat="43.16687" lon="3.1198">
        <ele>179</ele>
        <time>2022-02-03T11:54:27+01:00</time>
      </trkpt>
      <trkpt lat="43.16705" lon="3.11998">
        <ele>182</ele>
        <time>2022-02-03T11:54:50+01:00</time>
      </trkpt>
      <trkpt lat="43.16728" lon="3.11992">
        <ele>184</ele>
        <time>2022-02-03T11:55:15+01:00</time>
      </trkpt>
      <trkpt lat="43.16747" lon="3.11976">
        <ele>186</ele>
        <time>2022-02-03T11:55:42+01:00</time>
      </trkpt>
      <trkpt lat="43.16768" lon="3.11964">
        <ele>186</ele>
        <time>2022-02-03T11:56:06+01:00</time>
      </trkpt>
      <trkpt lat="43.16778" lon="3.11992">
        <ele>184</ele>
        <time>2022-02-03T11:56:45+01:00</time>
      </trkpt>
      <trkpt lat="43.16796" lon="3.12011">
        <ele>187</ele>
        <time>2022-02-03T11:57:07+01:00</time>
      </trkpt>
      <trkpt lat="43.16816" lon="3.12026">
        <ele>189</ele>
        <time>2022-02-03T11:57:27+01:00</time>
      </trkpt>
      <trkpt lat="43.16838" lon="3.12037">
        <ele>193</ele>
        <time>2022-02-03T11:57:47+01:00</time>
      </trkpt>
      <trkpt lat="43.16859" lon="3.12051">
        <ele>194</ele>
        <time>2022-02-03T11:58:09+01:00</time>
      </trkpt>
      <trkpt lat="43.16878" lon="3.12068">
        <ele>194</ele>
        <time>2022-02-03T11:58:30+01:00</time>
      </trkpt>
      <trkpt lat="43.16895" lon="3.1209">
        <ele>194</ele>
        <time>2022-02-03T11:58:50+01:00</time>
      </trkpt>
      <trkpt lat="43.16907" lon="3.12117">
        <ele>195</ele>
        <time>2022-02-03T11:59:11+01:00</time>
      </trkpt>
      <trkpt lat="43.16919" lon="3.12143">
        <ele>196</ele>
        <time>2022-02-03T11:59:30+01:00</time>
      </trkpt>
      <trkpt lat="43.16932" lon="3.12169">
        <ele>196</ele>
        <time>2022-02-03T11:59:50+01:00</time>
      </trkpt>
      <trkpt lat="43.16947" lon="3.12192">
        <ele>196</ele>
        <time>2022-02-03T12:00:11+01:00</time>
      </trkpt>
      <trkpt lat="43.16963" lon="3.12215">
        <ele>198</ele>
        <time>2022-02-03T12:00:32+01:00</time>
      </trkpt>
      <trkpt lat="43.1698" lon="3.12237">
        <ele>198</ele>
        <time>2022-02-03T12:00:53+01:00</time>
      </trkpt>
      <trkpt lat="43.17002" lon="3.12247">
        <ele>199</ele>
        <time>2022-02-03T12:01:26+01:00</time>
      </trkpt>
      <trkpt lat="43.17004" lon="3.12216">
        <ele>198</ele>
        <time>2022-02-03T12:01:47+01:00</time>
      </trkpt>
      <trkpt lat="43.17009" lon="3.12185">
        <ele>197</ele>
        <time>2022-02-03T12:03:11+01:00</time>
      </trkpt>
      <trkpt lat="43.17017" lon="3.12216">
        <ele>196</ele>
        <time>2022-02-03T12:03:30+01:00</time>
      </trkpt>
      <trkpt lat="43.17029" lon="3.12243">
        <ele>196</ele>
        <time>2022-02-03T12:03:55+01:00</time>
      </trkpt>
      <trkpt lat="43.17044" lon="3.12267">
        <ele>195</ele>
        <time>2022-02-03T12:04:16+01:00</time>
      </trkpt>
      <trkpt lat="43.1706" lon="3.12289">
        <ele>194</ele>
        <time>2022-02-03T12:04:44+01:00</time>
      </trkpt>
      <trkpt lat="43.17077" lon="3.12311">
        <ele>191</ele>
        <time>2022-02-03T12:05:07+01:00</time>
      </trkpt>
      <trkpt lat="43.17092" lon="3.12335">
        <ele>190</ele>
        <time>2022-02-03T12:05:28+01:00</time>
      </trkpt>
      <trkpt lat="43.17106" lon="3.12359">
        <ele>189</ele>
        <time>2022-02-03T12:05:48+01:00</time>
      </trkpt>
      <trkpt lat="43.1712" lon="3.12385">
        <ele>187</ele>
        <time>2022-02-03T12:06:07+01:00</time>
      </trkpt>
      <trkpt lat="43.17137" lon="3.12407">
        <ele>186</ele>
        <time>2022-02-03T12:06:28+01:00</time>
      </trkpt>
      <trkpt lat="43.17151" lon="3.12432">
        <ele>184</ele>
        <time>2022-02-03T12:06:49+01:00</time>
      </trkpt>
      <trkpt lat="43.17167" lon="3.12454">
        <ele>183</ele>
        <time>2022-02-03T12:07:09+01:00</time>
      </trkpt>
      <trkpt lat="43.17182" lon="3.12478">
        <ele>186</ele>
        <time>2022-02-03T12:07:29+01:00</time>
      </trkpt>
      <trkpt lat="43.172" lon="3.12497">
        <ele>185</ele>
        <time>2022-02-03T12:07:51+01:00</time>
      </trkpt>
      <trkpt lat="43.17214" lon="3.12522">
        <ele>182</ele>
        <time>2022-02-03T12:08:11+01:00</time>
      </trkpt>
      <trkpt lat="43.17229" lon="3.12546">
        <ele>182</ele>
        <time>2022-02-03T12:08:31+01:00</time>
      </trkpt>
      <trkpt lat="43.17244" lon="3.1257">
        <ele>182</ele>
        <time>2022-02-03T12:08:49+01:00</time>
      </trkpt>
      <trkpt lat="43.17257" lon="3.12595">
        <ele>181</ele>
        <time>2022-02-03T12:09:07+01:00</time>
      </trkpt>
      <trkpt lat="43.17271" lon="3.1262">
        <ele>183</ele>
        <time>2022-02-03T12:09:26+01:00</time>
      </trkpt>
      <trkpt lat="43.17286" lon="3.12645">
        <ele>182</ele>
        <time>2022-02-03T12:09:45+01:00</time>
      </trkpt>
      <trkpt lat="43.17301" lon="3.1267">
        <ele>182</ele>
        <time>2022-02-03T12:10:05+01:00</time>
      </trkpt>
      <trkpt lat="43.17315" lon="3.12694">
        <ele>181</ele>
        <time>2022-02-03T12:10:24+01:00</time>
      </trkpt>
      <trkpt lat="43.17329" lon="3.1272">
        <ele>179</ele>
        <time>2022-02-03T12:10:43+01:00</time>
      </trkpt>
      <trkpt lat="43.17344" lon="3.12744">
        <ele>180</ele>
        <time>2022-02-03T12:11:02+01:00</time>
      </trkpt>
      <trkpt lat="43.17356" lon="3.1277">
        <ele>179</ele>
        <time>2022-02-03T12:11:21+01:00</time>
      </trkpt>
      <trkpt lat="43.17367" lon="3.12797">
        <ele>179</ele>
        <time>2022-02-03T12:11:40+01:00</time>
      </trkpt>
      <trkpt lat="43.17377" lon="3.12825">
        <ele>178</ele>
        <time>2022-02-03T12:11:59+01:00</time>
      </trkpt>
      <trkpt lat="43.17388" lon="3.12852">
        <ele>177</ele>
        <time>2022-02-03T12:12:20+01:00</time>
      </trkpt>
      <trkpt lat="43.17399" lon="3.12881">
        <ele>175</ele>
        <time>2022-02-03T12:12:42+01:00</time>
      </trkpt>
      <trkpt lat="43.17409" lon="3.12909">
        <ele>175</ele>
        <time>2022-02-03T12:13:00+01:00</time>
      </trkpt>
      <trkpt lat="43.17421" lon="3.12936">
        <ele>176</ele>
        <time>2022-02-03T12:13:19+01:00</time>
      </trkpt>
      <trkpt lat="43.17434" lon="3.12961">
        <ele>175</ele>
        <time>2022-02-03T12:13:39+01:00</time>
      </trkpt>
      <trkpt lat="43.17441" lon="3.12992">
        <ele>174</ele>
        <time>2022-02-03T12:13:59+01:00</time>
      </trkpt>
      <trkpt lat="43.17445" lon="3.13022">
        <ele>174</ele>
        <time>2022-02-03T12:14:19+01:00</time>
      </trkpt>
      <trkpt lat="43.17452" lon="3.13052">
        <ele>176</ele>
        <time>2022-02-03T12:14:42+01:00</time>
      </trkpt>
      <trkpt lat="43.17452" lon="3.13085">
        <ele>174</ele>
        <time>2022-02-03T12:15:04+01:00</time>
      </trkpt>
      <trkpt lat="43.17456" lon="3.13115">
        <ele>172</ele>
        <time>2022-02-03T12:15:23+01:00</time>
      </trkpt>
      <trkpt lat="43.17464" lon="3.13144">
        <ele>171</ele>
        <time>2022-02-03T12:15:42+01:00</time>
      </trkpt>
      <trkpt lat="43.17474" lon="3.13172">
        <ele>170</ele>
        <time>2022-02-03T12:16:01+01:00</time>
      </trkpt>
      <trkpt lat="43.17484" lon="3.13201">
        <ele>169</ele>
        <time>2022-02-03T12:16:21+01:00</time>
      </trkpt>
      <trkpt lat="43.17493" lon="3.13229">
        <ele>168</ele>
        <time>2022-02-03T12:16:40+01:00</time>
      </trkpt>
      <trkpt lat="43.17506" lon="3.13256">
        <ele>167</ele>
        <time>2022-02-03T12:17:01+01:00</time>
      </trkpt>
      <trkpt lat="43.17525" lon="3.13273">
        <ele>167</ele>
        <time>2022-02-03T12:17:22+01:00</time>
      </trkpt>
      <trkpt lat="43.17548" lon="3.13278">
        <ele>170</ele>
        <time>2022-02-03T12:18:00+01:00</time>
      </trkpt>
      <trkpt lat="43.17571" lon="3.13281">
        <ele>171</ele>
        <time>2022-02-03T12:18:21+01:00</time>
      </trkpt>
      <trkpt lat="43.17594" lon="3.13283">
        <ele>169</ele>
        <time>2022-02-03T12:18:58+01:00</time>
      </trkpt>
      <trkpt lat="43.17616" lon="3.1329">
        <ele>169</ele>
        <time>2022-02-03T12:19:17+01:00</time>
      </trkpt>
      <trkpt lat="43.17637" lon="3.13302">
        <ele>169</ele>
        <time>2022-02-03T12:19:48+01:00</time>
      </trkpt>
      <trkpt lat="43.17638" lon="3.13332">
        <ele>169</ele>
        <time>2022-02-03T13:17:57+01:00</time>
      </trkpt>
      <trkpt lat="43.1764" lon="3.13364">
        <ele>170</ele>
        <time>2022-02-03T13:18:22+01:00</time>
      </trkpt>
      <trkpt lat="43.17646" lon="3.13394">
        <ele>167</ele>
        <time>2022-02-03T13:18:47+01:00</time>
      </trkpt>
      <trkpt lat="43.17652" lon="3.13424">
        <ele>169</ele>
        <time>2022-02-03T13:19:06+01:00</time>
      </trkpt>
      <trkpt lat="43.17664" lon="3.13452">
        <ele>168</ele>
        <time>2022-02-03T13:19:28+01:00</time>
      </trkpt>
      <trkpt lat="43.17675" lon="3.1348">
        <ele>168</ele>
        <time>2022-02-03T13:19:50+01:00</time>
      </trkpt>
      <trkpt lat="43.17683" lon="3.13509">
        <ele>168</ele>
        <time>2022-02-03T13:20:11+01:00</time>
      </trkpt>
      <trkpt lat="43.17684" lon="3.13541">
        <ele>168</ele>
        <time>2022-02-03T13:20:33+01:00</time>
      </trkpt>
      <trkpt lat="43.17681" lon="3.13572">
        <ele>168</ele>
        <time>2022-02-03T13:20:56+01:00</time>
      </trkpt>
      <trkpt lat="43.17677" lon="3.13603">
        <ele>167</ele>
        <time>2022-02-03T13:21:18+01:00</time>
      </trkpt>
      <trkpt lat="43.17673" lon="3.13634">
        <ele>167</ele>
        <time>2022-02-03T13:21:39+01:00</time>
      </trkpt>
      <trkpt lat="43.1767" lon="3.13666">
        <ele>168</ele>
        <time>2022-02-03T13:22:01+01:00</time>
      </trkpt>
      <trkpt lat="43.17666" lon="3.13696">
        <ele>169</ele>
        <time>2022-02-03T13:22:35+01:00</time>
      </trkpt>
      <trkpt lat="43.17664" lon="3.13728">
        <ele>168</ele>
        <time>2022-02-03T13:22:56+01:00</time>
      </trkpt>
      <trkpt lat="43.17661" lon="3.13758">
        <ele>168</ele>
        <time>2022-02-03T13:23:17+01:00</time>
      </trkpt>
      <trkpt lat="43.17659" lon="3.1379">
        <ele>168</ele>
        <time>2022-02-03T13:23:38+01:00</time>
      </trkpt>
      <trkpt lat="43.17656" lon="3.13822">
        <ele>168</ele>
        <time>2022-02-03T13:24:01+01:00</time>
      </trkpt>
      <trkpt lat="43.17653" lon="3.13853">
        <ele>168</ele>
        <time>2022-02-03T13:24:21+01:00</time>
      </trkpt>
      <trkpt lat="43.17652" lon="3.13884">
        <ele>168</ele>
        <time>2022-02-03T13:24:44+01:00</time>
      </trkpt>
      <trkpt lat="43.17649" lon="3.13915">
        <ele>168</ele>
        <time>2022-02-03T13:25:05+01:00</time>
      </trkpt>
      <trkpt lat="43.17645" lon="3.13945">
        <ele>170</ele>
        <time>2022-02-03T13:25:27+01:00</time>
      </trkpt>
      <trkpt lat="43.17643" lon="3.13976">
        <ele>171</ele>
        <time>2022-02-03T13:25:49+01:00</time>
      </trkpt>
      <trkpt lat="43.17644" lon="3.14008">
        <ele>171</ele>
        <time>2022-02-03T13:26:14+01:00</time>
      </trkpt>
      <trkpt lat="43.17648" lon="3.1404">
        <ele>171</ele>
        <time>2022-02-03T13:26:39+01:00</time>
      </trkpt>
      <trkpt lat="43.17671" lon="3.14045">
        <ele>170</ele>
        <time>2022-02-03T13:27:07+01:00</time>
      </trkpt>
      <trkpt lat="43.17682" lon="3.14018">
        <ele>168</ele>
        <time>2022-02-03T13:27:51+01:00</time>
      </trkpt>
      <trkpt lat="43.17669" lon="3.14043">
        <ele>169</ele>
        <time>2022-02-03T13:32:04+01:00</time>
      </trkpt>
      <trkpt lat="43.17646" lon="3.14036">
        <ele>170</ele>
        <time>2022-02-03T13:32:30+01:00</time>
      </trkpt>
      <trkpt lat="43.17646" lon="3.14005">
        <ele>172</ele>
        <time>2022-02-03T13:32:51+01:00</time>
      </trkpt>
      <trkpt lat="43.17646" lon="3.13973">
        <ele>170</ele>
        <time>2022-02-03T13:33:12+01:00</time>
      </trkpt>
      <trkpt lat="43.17646" lon="3.13942">
        <ele>170</ele>
        <time>2022-02-03T13:33:32+01:00</time>
      </trkpt>
      <trkpt lat="43.17627" lon="3.13924">
        <ele>170</ele>
        <time>2022-02-03T13:33:56+01:00</time>
      </trkpt>
      <trkpt lat="43.17603" lon="3.13923">
        <ele>171</ele>
        <time>2022-02-03T13:34:18+01:00</time>
      </trkpt>
      <trkpt lat="43.17581" lon="3.13914">
        <ele>171</ele>
        <time>2022-02-03T13:34:38+01:00</time>
      </trkpt>
      <trkpt lat="43.17561" lon="3.13899">
        <ele>170</ele>
        <time>2022-02-03T13:35:44+01:00</time>
      </trkpt>
      <trkpt lat="43.17542" lon="3.13881">
        <ele>170</ele>
        <time>2022-02-03T13:36:07+01:00</time>
      </trkpt>
      <trkpt lat="43.17525" lon="3.1386">
        <ele>170</ele>
        <time>2022-02-03T13:36:29+01:00</time>
      </trkpt>
      <trkpt lat="43.17503" lon="3.13857">
        <ele>169</ele>
        <time>2022-02-03T13:36:50+01:00</time>
      </trkpt>
      <trkpt lat="43.17479" lon="3.13854">
        <ele>171</ele>
        <time>2022-02-03T13:37:11+01:00</time>
      </trkpt>
      <trkpt lat="43.17456" lon="3.13854">
        <ele>172</ele>
        <time>2022-02-03T13:37:32+01:00</time>
      </trkpt>
      <trkpt lat="43.17433" lon="3.13853">
        <ele>170</ele>
        <time>2022-02-03T13:38:18+01:00</time>
      </trkpt>
      <trkpt lat="43.1741" lon="3.13857">
        <ele>171</ele>
        <time>2022-02-03T13:38:41+01:00</time>
      </trkpt>
      <trkpt lat="43.17387" lon="3.13859">
        <ele>172</ele>
        <time>2022-02-03T13:39:02+01:00</time>
      </trkpt>
      <trkpt lat="43.17365" lon="3.13862">
        <ele>173</ele>
        <time>2022-02-03T13:39:23+01:00</time>
      </trkpt>
      <trkpt lat="43.17342" lon="3.13854">
        <ele>175</ele>
        <time>2022-02-03T13:39:46+01:00</time>
      </trkpt>
      <trkpt lat="43.17319" lon="3.1385">
        <ele>174</ele>
        <time>2022-02-03T13:40:35+01:00</time>
      </trkpt>
      <trkpt lat="43.17307" lon="3.13824">
        <ele>170</ele>
        <time>2022-02-03T13:41:25+01:00</time>
      </trkpt>
      <trkpt lat="43.17299" lon="3.13795">
        <ele>167</ele>
        <time>2022-02-03T13:41:53+01:00</time>
      </trkpt>
      <trkpt lat="43.17315" lon="3.13817">
        <ele>167</ele>
        <time>2022-02-03T13:42:57+01:00</time>
      </trkpt>
      <trkpt lat="43.17337" lon="3.13825">
        <ele>169</ele>
        <time>2022-02-03T13:43:27+01:00</time>
      </trkpt>
      <trkpt lat="43.1735" lon="3.13851">
        <ele>170</ele>
        <time>2022-02-03T13:44:01+01:00</time>
      </trkpt>
      <trkpt lat="43.17332" lon="3.13832">
        <ele>173</ele>
        <time>2022-02-03T13:45:40+01:00</time>
      </trkpt>
      <trkpt lat="43.17311" lon="3.13817">
        <ele>169</ele>
        <time>2022-02-03T13:46:26+01:00</time>
      </trkpt>
      <trkpt lat="43.173" lon="3.13844">
        <ele>173</ele>
        <time>2022-02-03T13:49:16+01:00</time>
      </trkpt>
      <trkpt lat="43.17277" lon="3.13849">
        <ele>173</ele>
        <time>2022-02-03T13:49:55+01:00</time>
      </trkpt>
      <trkpt lat="43.17272" lon="3.1388">
        <ele>171</ele>
        <time>2022-02-03T13:50:57+01:00</time>
      </trkpt>
      <trkpt lat="43.17249" lon="3.13881">
        <ele>171</ele>
        <time>2022-02-03T13:51:30+01:00</time>
      </trkpt>
      <trkpt lat="43.17227" lon="3.13875">
        <ele>168</ele>
        <time>2022-02-03T13:51:56+01:00</time>
      </trkpt>
      <trkpt lat="43.17203" lon="3.13874">
        <ele>163</ele>
        <time>2022-02-03T13:52:21+01:00</time>
      </trkpt>
      <trkpt lat="43.17181" lon="3.13876">
        <ele>163</ele>
        <time>2022-02-03T13:52:49+01:00</time>
      </trkpt>
      <trkpt lat="43.17159" lon="3.13885">
        <ele>161</ele>
        <time>2022-02-03T13:53:13+01:00</time>
      </trkpt>
      <trkpt lat="43.17138" lon="3.13898">
        <ele>159</ele>
        <time>2022-02-03T13:53:37+01:00</time>
      </trkpt>
      <trkpt lat="43.17117" lon="3.13909">
        <ele>152</ele>
        <time>2022-02-03T13:54:09+01:00</time>
      </trkpt>
      <trkpt lat="43.17096" lon="3.13924">
        <ele>152</ele>
        <time>2022-02-03T13:54:32+01:00</time>
      </trkpt>
      <trkpt lat="43.17076" lon="3.13939">
        <ele>150</ele>
        <time>2022-02-03T13:54:53+01:00</time>
      </trkpt>
      <trkpt lat="43.17058" lon="3.13957">
        <ele>147</ele>
        <time>2022-02-03T13:55:15+01:00</time>
      </trkpt>
      <trkpt lat="43.17047" lon="3.13984">
        <ele>142</ele>
        <time>2022-02-03T13:55:36+01:00</time>
      </trkpt>
      <trkpt lat="43.17038" lon="3.14013">
        <ele>141</ele>
        <time>2022-02-03T13:55:57+01:00</time>
      </trkpt>
      <trkpt lat="43.17036" lon="3.14045">
        <ele>140</ele>
        <time>2022-02-03T13:56:19+01:00</time>
      </trkpt>
      <trkpt lat="43.17039" lon="3.14076">
        <ele>141</ele>
        <time>2022-02-03T13:56:38+01:00</time>
      </trkpt>
      <trkpt lat="43.1704" lon="3.14108">
        <ele>140</ele>
        <time>2022-02-03T13:56:59+01:00</time>
      </trkpt>
      <trkpt lat="43.17045" lon="3.14139">
        <ele>139</ele>
        <time>2022-02-03T13:57:19+01:00</time>
      </trkpt>
      <trkpt lat="43.17053" lon="3.14168">
        <ele>140</ele>
        <time>2022-02-03T13:58:39+01:00</time>
      </trkpt>
      <trkpt lat="43.17053" lon="3.142">
        <ele>140</ele>
        <time>2022-02-03T13:59:01+01:00</time>
      </trkpt>
      <trkpt lat="43.17047" lon="3.1423">
        <ele>140</ele>
        <time>2022-02-03T13:59:26+01:00</time>
      </trkpt>
      <trkpt lat="43.17048" lon="3.14261">
        <ele>139</ele>
        <time>2022-02-03T13:59:48+01:00</time>
      </trkpt>
      <trkpt lat="43.17048" lon="3.14293">
        <ele>136</ele>
        <time>2022-02-03T14:00:13+01:00</time>
      </trkpt>
      <trkpt lat="43.17049" lon="3.14324">
        <ele>136</ele>
        <time>2022-02-03T14:00:35+01:00</time>
      </trkpt>
      <trkpt lat="43.17027" lon="3.14313">
        <ele>134</ele>
        <time>2022-02-03T14:01:11+01:00</time>
      </trkpt>
      <trkpt lat="43.1701" lon="3.14294">
        <ele>128</ele>
        <time>2022-02-03T14:01:40+01:00</time>
      </trkpt>
      <trkpt lat="43.16992" lon="3.14273">
        <ele>127</ele>
        <time>2022-02-03T14:02:10+01:00</time>
      </trkpt>
      <trkpt lat="43.16983" lon="3.14245">
        <ele>125</ele>
        <time>2022-02-03T14:02:38+01:00</time>
      </trkpt>
      <trkpt lat="43.16978" lon="3.14215">
        <ele>123</ele>
        <time>2022-02-03T14:03:15+01:00</time>
      </trkpt>
      <trkpt lat="43.16978" lon="3.14183">
        <ele>123</ele>
        <time>2022-02-03T14:03:46+01:00</time>
      </trkpt>
      <trkpt lat="43.16964" lon="3.14158">
        <ele>120</ele>
        <time>2022-02-03T14:04:13+01:00</time>
      </trkpt>
      <trkpt lat="43.16952" lon="3.14131">
        <ele>116</ele>
        <time>2022-02-03T14:04:40+01:00</time>
      </trkpt>
      <trkpt lat="43.16938" lon="3.14106">
        <ele>117</ele>
        <time>2022-02-03T14:07:41+01:00</time>
      </trkpt>
      <trkpt lat="43.16916" lon="3.14099">
        <ele>114</ele>
        <time>2022-02-03T14:08:09+01:00</time>
      </trkpt>
      <trkpt lat="43.16892" lon="3.14097">
        <ele>111</ele>
        <time>2022-02-03T14:08:32+01:00</time>
      </trkpt>
      <trkpt lat="43.16869" lon="3.14096">
        <ele>109</ele>
        <time>2022-02-03T14:08:55+01:00</time>
      </trkpt>
      <trkpt lat="43.16846" lon="3.1409">
        <ele>109</ele>
        <time>2022-02-03T14:09:15+01:00</time>
      </trkpt>
      <trkpt lat="43.16827" lon="3.14073">
        <ele>110</ele>
        <time>2022-02-03T14:09:36+01:00</time>
      </trkpt>
      <trkpt lat="43.16807" lon="3.14056">
        <ele>109</ele>
        <time>2022-02-03T14:09:57+01:00</time>
      </trkpt>
      <trkpt lat="43.16788" lon="3.14036">
        <ele>108</ele>
        <time>2022-02-03T14:10:17+01:00</time>
      </trkpt>
      <trkpt lat="43.16765" lon="3.14043">
        <ele>108</ele>
        <time>2022-02-03T14:10:40+01:00</time>
      </trkpt>
      <trkpt lat="43.16743" lon="3.14034">
        <ele>106</ele>
        <time>2022-02-03T14:11:02+01:00</time>
      </trkpt>
      <trkpt lat="43.1672" lon="3.14035">
        <ele>107</ele>
        <time>2022-02-03T14:11:38+01:00</time>
      </trkpt>
      <trkpt lat="43.16697" lon="3.14035">
        <ele>106</ele>
        <time>2022-02-03T14:12:00+01:00</time>
      </trkpt>
      <trkpt lat="43.16675" lon="3.14035">
        <ele>106</ele>
        <time>2022-02-03T14:12:21+01:00</time>
      </trkpt>
      <trkpt lat="43.16652" lon="3.14036">
        <ele>105</ele>
        <time>2022-02-03T14:12:41+01:00</time>
      </trkpt>
      <trkpt lat="43.16629" lon="3.14039">
        <ele>105</ele>
        <time>2022-02-03T14:13:03+01:00</time>
      </trkpt>
      <trkpt lat="43.16607" lon="3.14045">
        <ele>103</ele>
        <time>2022-02-03T14:13:23+01:00</time>
      </trkpt>
      <trkpt lat="43.16584" lon="3.14049">
        <ele>102</ele>
        <time>2022-02-03T14:13:44+01:00</time>
      </trkpt>
      <trkpt lat="43.16561" lon="3.1405">
        <ele>102</ele>
        <time>2022-02-03T14:14:05+01:00</time>
      </trkpt>
      <trkpt lat="43.16538" lon="3.14055">
        <ele>99</ele>
        <time>2022-02-03T14:14:27+01:00</time>
      </trkpt>
      <trkpt lat="43.16514" lon="3.14059">
        <ele>98</ele>
        <time>2022-02-03T14:14:48+01:00</time>
      </trkpt>
      <trkpt lat="43.16492" lon="3.14058">
        <ele>99</ele>
        <time>2022-02-03T14:15:09+01:00</time>
      </trkpt>
      <trkpt lat="43.1648" lon="3.14084">
        <ele>97</ele>
        <time>2022-02-03T14:16:46+01:00</time>
      </trkpt>
      <trkpt lat="43.16464" lon="3.14107">
        <ele>96</ele>
        <time>2022-02-03T14:17:10+01:00</time>
      </trkpt>
      <trkpt lat="43.16446" lon="3.14128">
        <ele>97</ele>
        <time>2022-02-03T14:17:29+01:00</time>
      </trkpt>
      <trkpt lat="43.16429" lon="3.14147">
        <ele>98</ele>
        <time>2022-02-03T14:17:51+01:00</time>
      </trkpt>
      <trkpt lat="43.16411" lon="3.14169">
        <ele>97</ele>
        <time>2022-02-03T14:18:11+01:00</time>
      </trkpt>
      <trkpt lat="43.16395" lon="3.14191">
        <ele>97</ele>
        <time>2022-02-03T14:18:31+01:00</time>
      </trkpt>
      <trkpt lat="43.16378" lon="3.14212">
        <ele>100</ele>
        <time>2022-02-03T14:18:53+01:00</time>
      </trkpt>
      <trkpt lat="43.16359" lon="3.14231">
        <ele>102</ele>
        <time>2022-02-03T14:19:16+01:00</time>
      </trkpt>
      <trkpt lat="43.16337" lon="3.1424">
        <ele>101</ele>
        <time>2022-02-03T14:19:37+01:00</time>
      </trkpt>
      <trkpt lat="43.16315" lon="3.14249">
        <ele>101</ele>
        <time>2022-02-03T14:19:56+01:00</time>
      </trkpt>
      <trkpt lat="43.16293" lon="3.14255">
        <ele>101</ele>
        <time>2022-02-03T14:20:17+01:00</time>
      </trkpt>
      <trkpt lat="43.16271" lon="3.14243">
        <ele>103</ele>
        <time>2022-02-03T14:20:45+01:00</time>
      </trkpt>
      <trkpt lat="43.16257" lon="3.14219">
        <ele>102</ele>
        <time>2022-02-03T14:21:12+01:00</time>
      </trkpt>
      <trkpt lat="43.16236" lon="3.14208">
        <ele>102</ele>
        <time>2022-02-03T14:21:37+01:00</time>
      </trkpt>
      <trkpt lat="43.16213" lon="3.14211">
        <ele>102</ele>
        <time>2022-02-03T14:21:59+01:00</time>
      </trkpt>
      <trkpt lat="43.16191" lon="3.14219">
        <ele>105</ele>
        <time>2022-02-03T14:22:20+01:00</time>
      </trkpt>
      <trkpt lat="43.1617" lon="3.14232">
        <ele>106</ele>
        <time>2022-02-03T14:22:46+01:00</time>
      </trkpt>
      <trkpt lat="43.16148" lon="3.14243">
        <ele>107</ele>
        <time>2022-02-03T14:23:11+01:00</time>
      </trkpt>
      <trkpt lat="43.16126" lon="3.14252">
        <ele>108</ele>
        <time>2022-02-03T14:23:33+01:00</time>
      </trkpt>
      <trkpt lat="43.16103" lon="3.14257">
        <ele>109</ele>
        <time>2022-02-03T14:23:56+01:00</time>
      </trkpt>
      <trkpt lat="43.16081" lon="3.1425">
        <ele>110</ele>
        <time>2022-02-03T14:24:19+01:00</time>
      </trkpt>
      <trkpt lat="43.16063" lon="3.14231">
        <ele>113</ele>
        <time>2022-02-03T14:24:44+01:00</time>
      </trkpt>
      <trkpt lat="43.16048" lon="3.14207">
        <ele>116</ele>
        <time>2022-02-03T14:25:20+01:00</time>
      </trkpt>
      <trkpt lat="43.16025" lon="3.14209">
        <ele>117</ele>
        <time>2022-02-03T14:27:49+01:00</time>
      </trkpt>
      <trkpt lat="43.16012" lon="3.14236">
        <ele>114</ele>
        <time>2022-02-03T14:28:14+01:00</time>
      </trkpt>
      <trkpt lat="43.15995" lon="3.14257">
        <ele>111</ele>
        <time>2022-02-03T14:28:41+01:00</time>
      </trkpt>
      <trkpt lat="43.15973" lon="3.14259">
        <ele>110</ele>
        <time>2022-02-03T14:29:21+01:00</time>
      </trkpt>
      <trkpt lat="43.1595" lon="3.14264">
        <ele>111</ele>
        <time>2022-02-03T14:30:05+01:00</time>
      </trkpt>
      <trkpt lat="43.15927" lon="3.14264">
        <ele>110</ele>
        <time>2022-02-03T14:30:34+01:00</time>
      </trkpt>
      <trkpt lat="43.15946" lon="3.14247">
        <ele>105</ele>
        <time>2022-02-03T14:34:23+01:00</time>
      </trkpt>
      <trkpt lat="43.15955" lon="3.14219">
        <ele>101</ele>
        <time>2022-02-03T14:36:38+01:00</time>
      </trkpt>
      <trkpt lat="43.15941" lon="3.14195">
        <ele>97</ele>
        <time>2022-02-03T14:37:06+01:00</time>
      </trkpt>
      <trkpt lat="43.15937" lon="3.14165">
        <ele>97</ele>
        <time>2022-02-03T14:37:29+01:00</time>
      </trkpt>
      <trkpt lat="43.15934" lon="3.14133">
        <ele>94</ele>
        <time>2022-02-03T14:37:50+01:00</time>
      </trkpt>
      <trkpt lat="43.15922" lon="3.14106">
        <ele>94</ele>
        <time>2022-02-03T14:38:13+01:00</time>
      </trkpt>
      <trkpt lat="43.15903" lon="3.14089">
        <ele>93</ele>
        <time>2022-02-03T14:38:34+01:00</time>
      </trkpt>
      <trkpt lat="43.15882" lon="3.14078">
        <ele>90</ele>
        <time>2022-02-03T14:38:57+01:00</time>
      </trkpt>
      <trkpt lat="43.15859" lon="3.14081">
        <ele>88</ele>
        <time>2022-02-03T14:39:23+01:00</time>
      </trkpt>
      <trkpt lat="43.15836" lon="3.14086">
        <ele>87</ele>
        <time>2022-02-03T14:39:45+01:00</time>
      </trkpt>
      <trkpt lat="43.15813" lon="3.14083">
        <ele>87</ele>
        <time>2022-02-03T14:40:05+01:00</time>
      </trkpt>
      <trkpt lat="43.1579" lon="3.14079">
        <ele>86</ele>
        <time>2022-02-03T14:40:26+01:00</time>
      </trkpt>
      <trkpt lat="43.15767" lon="3.14073">
        <ele>84</ele>
        <time>2022-02-03T14:40:47+01:00</time>
      </trkpt>
      <trkpt lat="43.15745" lon="3.14066">
        <ele>84</ele>
        <time>2022-02-03T14:41:08+01:00</time>
      </trkpt>
      <trkpt lat="43.15731" lon="3.14091">
        <ele>82</ele>
        <time>2022-02-03T14:42:57+01:00</time>
      </trkpt>
      <trkpt lat="43.15728" lon="3.14121">
        <ele>80</ele>
        <time>2022-02-03T14:43:53+01:00</time>
      </trkpt>
      <trkpt lat="43.15724" lon="3.14151">
        <ele>79</ele>
        <time>2022-02-03T14:44:13+01:00</time>
      </trkpt>
      <trkpt lat="43.15717" lon="3.14182">
        <ele>78</ele>
        <time>2022-02-03T14:44:33+01:00</time>
      </trkpt>
      <trkpt lat="43.15709" lon="3.14212">
        <ele>76</ele>
        <time>2022-02-03T14:44:54+01:00</time>
      </trkpt>
      <trkpt lat="43.15701" lon="3.14242">
        <ele>74</ele>
        <time>2022-02-03T14:45:12+01:00</time>
      </trkpt>
      <trkpt lat="43.15694" lon="3.14273">
        <ele>73</ele>
        <time>2022-02-03T14:45:32+01:00</time>
      </trkpt>
      <trkpt lat="43.15686" lon="3.14301">
        <ele>74</ele>
        <time>2022-02-03T14:45:50+01:00</time>
      </trkpt>
      <trkpt lat="43.15684" lon="3.14332">
        <ele>72</ele>
        <time>2022-02-03T14:46:10+01:00</time>
      </trkpt>
      <trkpt lat="43.15672" lon="3.14359">
        <ele>71</ele>
        <time>2022-02-03T14:46:31+01:00</time>
      </trkpt>
      <trkpt lat="43.15657" lon="3.14383">
        <ele>70</ele>
        <time>2022-02-03T14:46:51+01:00</time>
      </trkpt>
      <trkpt lat="43.15644" lon="3.14411">
        <ele>68</ele>
        <time>2022-02-03T14:47:10+01:00</time>
      </trkpt>
      <trkpt lat="43.15628" lon="3.14432">
        <ele>70</ele>
        <time>2022-02-03T14:47:31+01:00</time>
      </trkpt>
      <trkpt lat="43.15611" lon="3.14453">
        <ele>70</ele>
        <time>2022-02-03T14:47:55+01:00</time>
      </trkpt>
      <trkpt lat="43.15593" lon="3.14472">
        <ele>70</ele>
        <time>2022-02-03T14:48:18+01:00</time>
      </trkpt>
      <trkpt lat="43.15584" lon="3.14502">
        <ele>69</ele>
        <time>2022-02-03T14:48:39+01:00</time>
      </trkpt>
      <trkpt lat="43.15588" lon="3.14532">
        <ele>67</ele>
        <time>2022-02-03T14:48:57+01:00</time>
      </trkpt>
      <trkpt lat="43.15586" lon="3.14563">
        <ele>68</ele>
        <time>2022-02-03T14:49:18+01:00</time>
      </trkpt>
      <trkpt lat="43.15579" lon="3.14593">
        <ele>68</ele>
        <time>2022-02-03T14:49:38+01:00</time>
      </trkpt>
      <trkpt lat="43.15562" lon="3.14613">
        <ele>68</ele>
        <time>2022-02-03T14:49:59+01:00</time>
      </trkpt>
      <trkpt lat="43.1554" lon="3.14624">
        <ele>70</ele>
        <time>2022-02-03T14:50:20+01:00</time>
      </trkpt>
      <trkpt lat="43.15518" lon="3.14634">
        <ele>67</ele>
        <time>2022-02-03T14:50:40+01:00</time>
      </trkpt>
      <trkpt lat="43.15497" lon="3.14646">
        <ele>69</ele>
        <time>2022-02-03T14:51:00+01:00</time>
      </trkpt>
      <trkpt lat="43.15475" lon="3.14658">
        <ele>68</ele>
        <time>2022-02-03T14:51:26+01:00</time>
      </trkpt>
      <trkpt lat="43.15456" lon="3.14675">
        <ele>64</ele>
        <time>2022-02-03T14:51:49+01:00</time>
      </trkpt>
      <trkpt lat="43.15459" lon="3.14706">
        <ele>63</ele>
        <time>2022-02-03T14:52:09+01:00</time>
      </trkpt>
      <trkpt lat="43.15464" lon="3.14736">
        <ele>62</ele>
        <time>2022-02-03T14:52:28+01:00</time>
      </trkpt>
      <trkpt lat="43.15461" lon="3.14768">
        <ele>61</ele>
        <time>2022-02-03T14:52:48+01:00</time>
      </trkpt>
      <trkpt lat="43.15449" lon="3.14794">
        <ele>60</ele>
        <time>2022-02-03T14:53:09+01:00</time>
      </trkpt>
      <trkpt lat="43.15428" lon="3.14806">
        <ele>61</ele>
        <time>2022-02-03T14:53:27+01:00</time>
      </trkpt>
      <trkpt lat="43.15405" lon="3.14815">
        <ele>63</ele>
        <time>2022-02-03T14:53:47+01:00</time>
      </trkpt>
      <trkpt lat="43.15384" lon="3.14824">
        <ele>60</ele>
        <time>2022-02-03T14:54:08+01:00</time>
      </trkpt>
      <trkpt lat="43.15364" lon="3.14838">
        <ele>61</ele>
        <time>2022-02-03T14:54:30+01:00</time>
      </trkpt>
      <trkpt lat="43.15355" lon="3.14867">
        <ele>60</ele>
        <time>2022-02-03T14:54:50+01:00</time>
      </trkpt>
      <trkpt lat="43.15352" lon="3.14899">
        <ele>55</ele>
        <time>2022-02-03T14:55:11+01:00</time>
      </trkpt>
      <trkpt lat="43.15333" lon="3.14918">
        <ele>57</ele>
        <time>2022-02-03T14:55:32+01:00</time>
      </trkpt>
      <trkpt lat="43.15315" lon="3.14938">
        <ele>57</ele>
        <time>2022-02-03T14:55:53+01:00</time>
      </trkpt>
      <trkpt lat="43.15292" lon="3.14939">
        <ele>55</ele>
        <time>2022-02-03T14:56:14+01:00</time>
      </trkpt>
      <trkpt lat="43.15269" lon="3.14934">
        <ele>55</ele>
        <time>2022-02-03T14:56:35+01:00</time>
      </trkpt>
      <trkpt lat="43.15246" lon="3.14941">
        <ele>58</ele>
        <time>2022-02-03T14:56:56+01:00</time>
      </trkpt>
      <trkpt lat="43.15224" lon="3.14938">
        <ele>61</ele>
        <time>2022-02-03T14:57:24+01:00</time>
      </trkpt>
      <trkpt lat="43.15204" lon="3.14954">
        <ele>56</ele>
        <time>2022-02-03T14:57:58+01:00</time>
      </trkpt>
      <trkpt lat="43.15182" lon="3.14961">
        <ele>52</ele>
        <time>2022-02-03T14:58:20+01:00</time>
      </trkpt>
    </trkseg>
  </trk>
</gpx>